Aviation Digital Data Service (ADDS)

Output produced by METARs form (1029 UTC 02 August 2021)
found at http://aviationweather.gov/metar/data/
 
METAR text: KCHD 020347Z 18005KT 10SM BKN200 36/17 A2993 RMK LAST
Conditions at: KCHD (CHANDLER , AZ, US) observed 0347 UTC 02 August 2021
Temperature: 36.0°C (97°F)
Dewpoint: 17.0°C (63°F) [RH = 33%]
Pressure (altimeter): 29.93 inches Hg (1013.6 mb)
Winds: from the S (180 degrees) at 6 MPH (5 knots; 2.6 m/s)
Visibility: 10 or more miles (16+ km)
Ceiling: 20000 feet AGL
Clouds: broken clouds at 20000 feet AGL
Weather: no significant weather observed at this time

METAR text: KCHD 020247Z 15005KT 10SM BKN200 37/17 A2992
Conditions at: KCHD (CHANDLER , AZ, US) observed 0247 UTC 02 August 2021
Temperature: 37.0°C (99°F)
Dewpoint: 17.0°C (63°F) [RH = 31%]
Pressure (altimeter): 29.92 inches Hg (1013.3 mb)
Winds: from the SSE (150 degrees) at 6 MPH (5 knots; 2.6 m/s)
Visibility: 10 or more miles (16+ km)
Ceiling: 20000 feet AGL
Clouds: broken clouds at 20000 feet AGL
Weather: no significant weather observed at this time

METAR text: KCHD 020147Z VRB05KT 10SM BKN200 38/16 A2991
Conditions at: KCHD (CHANDLER , AZ, US) observed 0147 UTC 02 August 2021
Temperature: 38.0°C (100°F)
Dewpoint: 16.0°C (61°F) [RH = 27%]
Pressure (altimeter): 29.91 inches Hg (1013.0 mb)
Winds: variable direction winds at 6 MPH (5 knots; 2.6 m/s)
Visibility: 10 or more miles (16+ km)
Ceiling: 20000 feet AGL
Clouds: broken clouds at 20000 feet AGL
Weather: no significant weather observed at this time

METAR text: KCHD 020047Z 25010KT 10SM BKN200 39/15 A2991
Conditions at: KCHD (CHANDLER , AZ, US) observed 0047 UTC 02 August 2021
Temperature: 39.0°C (102°F)
Dewpoint: 15.0°C (59°F) [RH = 24%]
Pressure (altimeter): 29.91 inches Hg (1013.0 mb)
Winds: from the WSW (250 degrees) at 12 MPH (10 knots; 5.1 m/s)
Visibility: 10 or more miles (16+ km)
Ceiling: 20000 feet AGL
Clouds: broken clouds at 20000 feet AGL
Weather: no significant weather observed at this time

METAR text: KCHD 012347Z 23008G18KT 10SM SCT100 BKN200 39/17 A2993
Conditions at: KCHD (CHANDLER , AZ, US) observed 2347 UTC 01 August 2021
Temperature: 39.0°C (102°F)
Dewpoint: 17.0°C (63°F) [RH = 28%]
Pressure (altimeter): 29.93 inches Hg (1013.6 mb)
Winds: from the SW (230 degrees) at 9 MPH (8 knots; 4.1 m/s)
gusting to 21 MPH (18 knots; 9.3 m/s)
Visibility: 10 or more miles (16+ km)
Ceiling: 20000 feet AGL
Clouds: scattered clouds at 10000 feet AGL
broken clouds at 20000 feet AGL
Weather: no significant weather observed at this time

METAR text: KCHD 012247Z 30003KT 10SM SCT100 BKN200 39/17 A2993
Conditions at: KCHD (CHANDLER , AZ, US) observed 2247 UTC 01 August 2021
Temperature: 39.0°C (102°F)
Dewpoint: 17.0°C (63°F) [RH = 28%]
Pressure (altimeter): 29.93 inches Hg (1013.6 mb)
Winds: from the WNW (300 degrees) at 3 MPH (3 knots; 1.5 m/s)
Visibility: 10 or more miles (16+ km)
Ceiling: 20000 feet AGL
Clouds: scattered clouds at 10000 feet AGL
broken clouds at 20000 feet AGL
Weather: no significant weather observed at this time